KTVI/TVI METAR and TAF weather

Enter ICAO airport designator
Station Type Date Time Source
KTVI METAR 2021/03/03 19:55 UTC NOAA

KTVI 031955Z AUTO 35006KT 10SM OVC012 11/08 A3004 RMK AO2


Station Type Date Time Source
KTVI Decoded METAR 2021/03/03 19:55 UTC NOAA

Thomasville, GA, United States (KTVI) 30-54-06N 083-52-53W
Mar 03, 2021 - 02:55 PM EST / 2021.03.03 1955 UTC
Wind: from the N (350 degrees) at 7 MPH (6 KT):0
Visibility: 10 mile(s):0
Sky conditions: overcast
Temperature: 51 F (11 C)
Dew Point: 46 F (8 C)
Relative Humidity: 81%
Pressure (altimeter): 30.04 in. Hg (1017 hPa)
ob: KTVI 031955Z AUTO 35006KT 10SM OVC012 11/08 A3004 RMK AO2
cycle: 20

Station Type Date Time Source
KTVI TAF UTC NOAA

Error!

Example: see airport list